sensor_id;sensor_type;location;lat;lon;timestamp;P1;durP1;ratioP1;P2;durP2;ratioP2
49131;SDS011;35149;51.196;6.204;2023-04-03T00:02:31;5.90;;;4.90;;
49131;SDS011;35149;51.196;6.204;2023-04-03T00:05:01;6.00;;;5.32;;
49131;SDS011;35149;51.196;6.204;2023-04-03T00:07:33;5.55;;;5.05;;
49131;SDS011;35149;51.196;6.204;2023-04-03T00:10:16;5.57;;;5.15;;
49131;SDS011;35149;51.196;6.204;2023-04-03T00:12:52;5.10;;;4.38;;
49131;SDS011;35149;51.196;6.204;2023-04-03T00:15:24;6.85;;;4.95;;
49131;SDS011;35149;51.196;6.204;2023-04-03T00:17:53;5.10;;;4.50;;
49131;SDS011;35149;51.196;6.204;2023-04-03T00:23:06;5.05;;;4.50;;
49131;SDS011;35149;51.196;6.204;2023-04-03T00:25:40;6.00;;;5.13;;
49131;SDS011;35149;51.196;6.204;2023-04-03T00:28:15;4.53;;;4.22;;
49131;SDS011;35149;51.196;6.204;2023-04-03T00:30:54;6.40;;;5.00;;
49131;SDS011;35149;51.196;6.204;2023-04-03T00:33:34;5.45;;;4.93;;
49131;SDS011;35149;51.196;6.204;2023-04-03T00:36:09;3.50;;;3.17;;
49131;SDS011;35149;51.196;6.204;2023-04-03T00:38:44;5.43;;;4.95;;
49131;SDS011;35149;51.196;6.204;2023-04-03T00:41:13;6.13;;;4.68;;
49131;SDS011;35149;51.196;6.204;2023-04-03T00:43:50;5.18;;;4.68;;
49131;SDS011;35149;51.196;6.204;2023-04-03T00:46:22;5.38;;;4.82;;
49131;SDS011;35149;51.196;6.204;2023-04-03T00:49:09;5.38;;;4.45;;
49131;SDS011;35149;51.196;6.204;2023-04-03T00:51:42;4.90;;;4.47;;
49131;SDS011;35149;51.196;6.204;2023-04-03T00:56:44;4.57;;;4.05;;
49131;SDS011;35149;51.196;6.204;2023-04-03T00:59:12;4.60;;;4.20;;
49131;SDS011;35149;51.196;6.204;2023-04-03T01:02:01;5.68;;;4.82;;
49131;SDS011;35149;51.196;6.204;2023-04-03T01:04:56;5.38;;;4.88;;
49131;SDS011;35149;51.196;6.204;2023-04-03T01:07:33;5.20;;;4.70;;
49131;SDS011;35149;51.196;6.204;2023-04-03T01:10:14;5.43;;;4.60;;
49131;SDS011;35149;51.196;6.204;2023-04-03T01:12:51;5.85;;;5.28;;
49131;SDS011;35149;51.196;6.204;2023-04-03T01:15:29;5.50;;;5.00;;
49131;SDS011;35149;51.196;6.204;2023-04-03T01:18:10;5.47;;;4.80;;
49131;SDS011;35149;51.196;6.204;2023-04-03T01:26:55;5.97;;;4.32;;
49131;SDS011;35149;51.196;6.204;2023-04-03T01:29:28;5.15;;;4.68;;
49131;SDS011;35149;51.196;6.204;2023-04-03T01:32:03;5.80;;;5.22;;
49131;SDS011;35149;51.196;6.204;2023-04-03T01:34:39;5.07;;;4.57;;
49131;SDS011;35149;51.196;6.204;2023-04-03T01:37:19;5.25;;;4.72;;
49131;SDS011;35149;51.196;6.204;2023-04-03T01:40:14;5.07;;;4.57;;
49131;SDS011;35149;51.196;6.204;2023-04-03T01:42:54;5.00;;;4.43;;
49131;SDS011;35149;51.196;6.204;2023-04-03T01:45:34;7.60;;;5.32;;
49131;SDS011;35149;51.196;6.204;2023-04-03T01:48:10;5.20;;;4.70;;
49131;SDS011;35149;51.196;6.204;2023-04-03T01:50:58;4.90;;;4.40;;
49131;SDS011;35149;51.196;6.204;2023-04-03T01:53:39;4.95;;;4.45;;
49131;SDS011;35149;51.196;6.204;2023-04-03T01:56:10;4.38;;;3.97;;
49131;SDS011;35149;51.196;6.204;2023-04-03T01:59:05;5.30;;;3.85;;
49131;SDS011;35149;51.196;6.204;2023-04-03T02:01:51;4.20;;;3.83;;
49131;SDS011;35149;51.196;6.204;2023-04-03T02:04:26;4.78;;;4.18;;
49131;SDS011;35149;51.196;6.204;2023-04-03T02:06:59;4.82;;;4.43;;
49131;SDS011;35149;51.196;6.204;2023-04-03T02:09:34;5.25;;;4.30;;
49131;SDS011;35149;51.196;6.204;2023-04-03T02:12:07;5.03;;;4.60;;
49131;SDS011;35149;51.196;6.204;2023-04-03T02:14:44;5.72;;;4.57;;
49131;SDS011;35149;51.196;6.204;2023-04-03T02:17:18;5.80;;;4.80;;
49131;SDS011;35149;51.196;6.204;2023-04-03T02:19:56;5.63;;;5.13;;
49131;SDS011;35149;51.196;6.204;2023-04-03T02:22:31;4.60;;;4.20;;
49131;SDS011;35149;51.196;6.204;2023-04-03T02:25:16;5.90;;;4.35;;
49131;SDS011;35149;51.196;6.204;2023-04-03T02:30:35;6.43;;;4.70;;
49131;SDS011;35149;51.196;6.204;2023-04-03T02:33:09;5.68;;;4.90;;
49131;SDS011;35149;51.196;6.204;2023-04-03T02:35:54;5.38;;;4.88;;
49131;SDS011;35149;51.196;6.204;2023-04-03T02:38:44;6.38;;;5.07;;
49131;SDS011;35149;51.196;6.204;2023-04-03T02:41:20;5.00;;;4.50;;
49131;SDS011;35149;51.196;6.204;2023-04-03T02:44:09;6.28;;;5.68;;
49131;SDS011;35149;51.196;6.204;2023-04-03T02:46:58;6.65;;;4.63;;
49131;SDS011;35149;51.196;6.204;2023-04-03T02:49:33;5.05;;;4.55;;
49131;SDS011;35149;51.196;6.204;2023-04-03T02:52:11;6.68;;;5.05;;
49131;SDS011;35149;51.196;6.204;2023-04-03T02:55:05;5.72;;;5.00;;
49131;SDS011;35149;51.196;6.204;2023-04-03T02:57:48;6.10;;;5.22;;
49131;SDS011;35149;51.196;6.204;2023-04-03T03:00:22;6.68;;;5.95;;
49131;SDS011;35149;51.196;6.204;2023-04-03T03:03:01;7.13;;;5.30;;
49131;SDS011;35149;51.196;6.204;2023-04-03T03:05:48;6.13;;;5.00;;
49131;SDS011;35149;51.196;6.204;2023-04-03T03:08:21;8.02;;;5.55;;
49131;SDS011;35149;51.196;6.204;2023-04-03T03:10:53;6.28;;;5.68;;
49131;SDS011;35149;51.196;6.204;2023-04-03T03:13:27;5.32;;;4.82;;
49131;SDS011;35149;51.196;6.204;2023-04-03T03:16:03;8.77;;;5.97;;
49131;SDS011;35149;51.196;6.204;2023-04-03T03:18:47;7.30;;;5.50;;
49131;SDS011;35149;51.196;6.204;2023-04-03T03:21:26;5.88;;;5.07;;
49131;SDS011;35149;51.196;6.204;2023-04-03T03:24:06;6.20;;;5.60;;
49131;SDS011;35149;51.196;6.204;2023-04-03T03:26:46;8.68;;;5.97;;
49131;SDS011;35149;51.196;6.204;2023-04-03T03:29:17;8.27;;;6.43;;
49131;SDS011;35149;51.196;6.204;2023-04-03T03:31:57;9.38;;;5.82;;
49131;SDS011;35149;51.196;6.204;2023-04-03T03:34:29;8.13;;;6.28;;
49131;SDS011;35149;51.196;6.204;2023-04-03T03:37:19;7.30;;;5.95;;
49131;SDS011;35149;51.196;6.204;2023-04-03T03:40:06;8.98;;;6.38;;
49131;SDS011;35149;51.196;6.204;2023-04-03T03:42:37;6.80;;;6.10;;
49131;SDS011;35149;51.196;6.204;2023-04-03T03:45:06;8.50;;;6.28;;
49131;SDS011;35149;51.196;6.204;2023-04-03T03:47:36;7.78;;;6.95;;
49131;SDS011;35149;51.196;6.204;2023-04-03T03:50:23;7.32;;;6.63;;
49131;SDS011;35149;51.196;6.204;2023-04-03T03:53:06;7.93;;;6.38;;
49131;SDS011;35149;51.196;6.204;2023-04-03T03:56:06;10.90;;;6.72;;
49131;SDS011;35149;51.196;6.204;2023-04-03T03:58:39;11.18;;;7.30;;
49131;SDS011;35149;51.196;6.204;2023-04-03T04:01:19;6.80;;;5.97;;
49131;SDS011;35149;51.196;6.204;2023-04-03T04:03:58;7.82;;;5.95;;
49131;SDS011;35149;51.196;6.204;2023-04-03T04:06:33;8.00;;;5.43;;
49131;SDS011;35149;51.196;6.204;2023-04-03T04:09:08;9.50;;;6.72;;
49131;SDS011;35149;51.196;6.204;2023-04-03T04:11:38;8.60;;;6.22;;
49131;SDS011;35149;51.196;6.204;2023-04-03T04:14:15;8.57;;;6.65;;
49131;SDS011;35149;51.196;6.204;2023-04-03T04:16:51;13.02;;;6.18;;
49131;SDS011;35149;51.196;6.204;2023-04-03T04:19:35;9.25;;;5.82;;
49131;SDS011;35149;51.196;6.204;2023-04-03T04:22:02;8.40;;;5.38;;
49131;SDS011;35149;51.196;6.204;2023-04-03T04:24:34;6.50;;;5.28;;
49131;SDS011;35149;51.196;6.204;2023-04-03T04:27:11;7.00;;;5.25;;
49131;SDS011;35149;51.196;6.204;2023-04-03T04:29:48;5.50;;;4.82;;
49131;SDS011;35149;51.196;6.204;2023-04-03T04:32:27;6.85;;;4.90;;
49131;SDS011;35149;51.196;6.204;2023-04-03T04:35:06;6.47;;;4.93;;
49131;SDS011;35149;51.196;6.204;2023-04-03T04:37:51;7.00;;;4.53;;
49131;SDS011;35149;51.196;6.204;2023-04-03T04:40:31;7.70;;;5.63;;
49131;SDS011;35149;51.196;6.204;2023-04-03T04:43:11;6.65;;;4.57;;
49131;SDS011;35149;51.196;6.204;2023-04-03T04:46:07;6.90;;;5.05;;
49131;SDS011;35149;51.196;6.204;2023-04-03T04:48:45;6.67;;;4.93;;
49131;SDS011;35149;51.196;6.204;2023-04-03T04:51:12;5.75;;;4.53;;
49131;SDS011;35149;51.196;6.204;2023-04-03T04:53:40;7.70;;;5.40;;
49131;SDS011;35149;51.196;6.204;2023-04-03T04:56:13;6.63;;;4.00;;
49131;SDS011;35149;51.196;6.204;2023-04-03T04:58:41;7.65;;;5.32;;
49131;SDS011;35149;51.196;6.204;2023-04-03T05:01:10;5.65;;;3.75;;
49131;SDS011;35149;51.196;6.204;2023-04-03T05:03:48;5.95;;;4.13;;
49131;SDS011;35149;51.196;6.204;2023-04-03T05:06:21;7.65;;;4.45;;
49131;SDS011;35149;51.196;6.204;2023-04-03T05:08:51;4.82;;;3.65;;
49131;SDS011;35149;51.196;6.204;2023-04-03T05:11:19;4.68;;;3.38;;
49131;SDS011;35149;51.196;6.204;2023-04-03T05:13:53;7.35;;;4.50;;
49131;SDS011;35149;51.196;6.204;2023-04-03T05:16:21;4.45;;;3.13;;
49131;SDS011;35149;51.196;6.204;2023-04-03T05:18:52;4.60;;;3.65;;
49131;SDS011;35149;51.196;6.204;2023-04-03T05:21:21;5.38;;;3.70;;
49131;SDS011;35149;51.196;6.204;2023-04-03T05:23:50;8.10;;;4.60;;
49131;SDS011;35149;51.196;6.204;2023-04-03T05:26:18;7.80;;;4.32;;
49131;SDS011;35149;51.196;6.204;2023-04-03T05:28:48;7.05;;;4.22;;
49131;SDS011;35149;51.196;6.204;2023-04-03T05:31:15;8.93;;;4.60;;
49131;SDS011;35149;51.196;6.204;2023-04-03T05:33:48;6.55;;;4.07;;
49131;SDS011;35149;51.196;6.204;2023-04-03T05:36:16;7.18;;;4.70;;
49131;SDS011;35149;51.196;6.204;2023-04-03T05:38:48;6.90;;;4.80;;
49131;SDS011;35149;51.196;6.204;2023-04-03T05:41:15;12.73;;;5.30;;
49131;SDS011;35149;51.196;6.204;2023-04-03T05:43:44;8.00;;;5.18;;
49131;SDS011;35149;51.196;6.204;2023-04-03T05:46:13;6.85;;;4.22;;
49131;SDS011;35149;51.196;6.204;2023-04-03T05:48:46;5.47;;;4.30;;
49131;SDS011;35149;51.196;6.204;2023-04-03T05:51:24;6.95;;;4.70;;
49131;SDS011;35149;51.196;6.204;2023-04-03T05:54:00;9.82;;;4.50;;
49131;SDS011;35149;51.196;6.204;2023-04-03T05:56:33;6.22;;;4.00;;
49131;SDS011;35149;51.196;6.204;2023-04-03T05:59:04;7.20;;;3.80;;
49131;SDS011;35149;51.196;6.204;2023-04-03T06:01:31;7.32;;;4.88;;
49131;SDS011;35149;51.196;6.204;2023-04-03T06:04:02;6.97;;;4.50;;
49131;SDS011;35149;51.196;6.204;2023-04-03T06:09:16;9.93;;;4.88;;
49131;SDS011;35149;51.196;6.204;2023-04-03T06:11:43;6.72;;;3.97;;
49131;SDS011;35149;51.196;6.204;2023-04-03T06:14:10;7.32;;;4.68;;
49131;SDS011;35149;51.196;6.204;2023-04-03T06:16:37;6.07;;;3.92;;
49131;SDS011;35149;51.196;6.204;2023-04-03T06:19:11;8.55;;;3.80;;
49131;SDS011;35149;51.196;6.204;2023-04-03T06:21:44;6.15;;;4.13;;
49131;SDS011;35149;51.196;6.204;2023-04-03T06:24:12;8.32;;;3.75;;
49131;SDS011;35149;51.196;6.204;2023-04-03T06:26:41;8.30;;;4.13;;
49131;SDS011;35149;51.196;6.204;2023-04-03T06:29:10;6.45;;;3.67;;
49131;SDS011;35149;51.196;6.204;2023-04-03T06:31:36;6.70;;;3.33;;
49131;SDS011;35149;51.196;6.204;2023-04-03T06:34:06;10.07;;;4.35;;
49131;SDS011;35149;51.196;6.204;2023-04-03T06:36:37;5.43;;;3.72;;
49131;SDS011;35149;51.196;6.204;2023-04-03T06:39:09;8.00;;;3.35;;
49131;SDS011;35149;51.196;6.204;2023-04-03T06:41:42;8.20;;;4.65;;
49131;SDS011;35149;51.196;6.204;2023-04-03T06:44:09;9.85;;;4.53;;
49131;SDS011;35149;51.196;6.204;2023-04-03T06:46:37;6.15;;;4.10;;
49131;SDS011;35149;51.196;6.204;2023-04-03T06:49:05;8.18;;;5.40;;
49131;SDS011;35149;51.196;6.204;2023-04-03T06:51:36;7.78;;;4.28;;
49131;SDS011;35149;51.196;6.204;2023-04-03T06:54:03;5.88;;;3.53;;
49131;SDS011;35149;51.196;6.204;2023-04-03T06:56:35;5.97;;;3.95;;
49131;SDS011;35149;51.196;6.204;2023-04-03T06:59:04;4.88;;;3.05;;
49131;SDS011;35149;51.196;6.204;2023-04-03T07:01:31;5.43;;;3.35;;
49131;SDS011;35149;51.196;6.204;2023-04-03T07:03:58;5.55;;;3.50;;
49131;SDS011;35149;51.196;6.204;2023-04-03T07:06:28;6.82;;;3.28;;
49131;SDS011;35149;51.196;6.204;2023-04-03T07:08:56;3.92;;;2.72;;
49131;SDS011;35149;51.196;6.204;2023-04-03T07:11:26;5.43;;;3.33;;
49131;SDS011;35149;51.196;6.204;2023-04-03T07:13:53;5.57;;;3.67;;
49131;SDS011;35149;51.196;6.204;2023-04-03T07:16:20;6.05;;;2.72;;
49131;SDS011;35149;51.196;6.204;2023-04-03T07:18:49;8.13;;;3.83;;
49131;SDS011;35149;51.196;6.204;2023-04-03T07:21:17;6.50;;;3.33;;
49131;SDS011;35149;51.196;6.204;2023-04-03T07:23:43;5.18;;;2.90;;
49131;SDS011;35149;51.196;6.204;2023-04-03T07:26:11;7.78;;;2.92;;
49131;SDS011;35149;51.196;6.204;2023-04-03T07:28:38;7.35;;;3.08;;
49131;SDS011;35149;51.196;6.204;2023-04-03T07:31:08;6.93;;;3.33;;
49131;SDS011;35149;51.196;6.204;2023-04-03T07:33:44;6.30;;;2.85;;
49131;SDS011;35149;51.196;6.204;2023-04-03T07:36:15;5.32;;;2.90;;
49131;SDS011;35149;51.196;6.204;2023-04-03T07:38:45;7.32;;;3.38;;
49131;SDS011;35149;51.196;6.204;2023-04-03T07:41:14;4.00;;;2.75;;
49131;SDS011;35149;51.196;6.204;2023-04-03T07:43:44;5.60;;;3.03;;
49131;SDS011;35149;51.196;6.204;2023-04-03T07:46:11;5.30;;;3.17;;
49131;SDS011;35149;51.196;6.204;2023-04-03T07:48:40;4.85;;;2.63;;
49131;SDS011;35149;51.196;6.204;2023-04-03T07:51:09;2.55;;;2.17;;
49131;SDS011;35149;51.196;6.204;2023-04-03T07:53:36;4.20;;;2.25;;
49131;SDS011;35149;51.196;6.204;2023-04-03T07:56:03;4.35;;;2.47;;
49131;SDS011;35149;51.196;6.204;2023-04-03T07:58:30;4.22;;;2.75;;
49131;SDS011;35149;51.196;6.204;2023-04-03T08:00:56;3.72;;;1.92;;
49131;SDS011;35149;51.196;6.204;2023-04-03T08:03:23;5.70;;;2.95;;
49131;SDS011;35149;51.196;6.204;2023-04-03T08:05:53;7.57;;;2.78;;
49131;SDS011;35149;51.196;6.204;2023-04-03T08:08:22;6.75;;;2.45;;
49131;SDS011;35149;51.196;6.204;2023-04-03T08:10:52;7.00;;;2.42;;
49131;SDS011;35149;51.196;6.204;2023-04-03T08:13:22;3.17;;;2.15;;
49131;SDS011;35149;51.196;6.204;2023-04-03T08:15:49;6.50;;;2.20;;
49131;SDS011;35149;51.196;6.204;2023-04-03T08:18:16;6.95;;;2.78;;
49131;SDS011;35149;51.196;6.204;2023-04-03T08:20:47;8.30;;;2.40;;
49131;SDS011;35149;51.196;6.204;2023-04-03T08:23:16;4.60;;;2.35;;
49131;SDS011;35149;51.196;6.204;2023-04-03T08:25:46;3.80;;;2.45;;
49131;SDS011;35149;51.196;6.204;2023-04-03T08:28:14;4.45;;;2.00;;
49131;SDS011;35149;51.196;6.204;2023-04-03T08:30:41;3.58;;;2.20;;
49131;SDS011;35149;51.196;6.204;2023-04-03T08:33:09;2.90;;;2.03;;
49131;SDS011;35149;51.196;6.204;2023-04-03T08:35:41;4.45;;;2.10;;
49131;SDS011;35149;51.196;6.204;2023-04-03T08:38:15;3.55;;;2.42;;
49131;SDS011;35149;51.196;6.204;2023-04-03T08:40:44;6.45;;;2.13;;
49131;SDS011;35149;51.196;6.204;2023-04-03T08:46:03;3.95;;;1.45;;
49131;SDS011;35149;51.196;6.204;2023-04-03T08:48:36;2.13;;;1.90;;
49131;SDS011;35149;51.196;6.204;2023-04-03T08:51:14;2.63;;;1.48;;
49131;SDS011;35149;51.196;6.204;2023-04-03T08:53:44;2.28;;;1.42;;
49131;SDS011;35149;51.196;6.204;2023-04-03T08:56:22;3.03;;;1.27;;
49131;SDS011;35149;51.196;6.204;2023-04-03T08:59:03;1.60;;;1.10;;
49131;SDS011;35149;51.196;6.204;2023-04-03T09:01:40;4.57;;;1.60;;
49131;SDS011;35149;51.196;6.204;2023-04-03T09:04:13;6.25;;;1.30;;
49131;SDS011;35149;51.196;6.204;2023-04-03T09:06:45;1.23;;;0.80;;
49131;SDS011;35149;51.196;6.204;2023-04-03T09:11:50;2.25;;;1.00;;
49131;SDS011;35149;51.196;6.204;2023-04-03T09:16:59;1.92;;;0.73;;
49131;SDS011;35149;51.196;6.204;2023-04-03T09:24:56;7.00;;;1.92;;
49131;SDS011;35149;51.196;6.204;2023-04-03T09:27:24;1.38;;;1.02;;
49131;SDS011;35149;51.196;6.204;2023-04-03T09:29:53;2.92;;;0.85;;
49131;SDS011;35149;51.196;6.204;2023-04-03T09:32:31;1.35;;;1.15;;
49131;SDS011;35149;51.196;6.204;2023-04-03T09:35:04;1.33;;;0.75;;
49131;SDS011;35149;51.196;6.204;2023-04-03T09:37:59;1.80;;;1.27;;
49131;SDS011;35149;51.196;6.204;2023-04-03T09:42:59;2.80;;;1.25;;
49131;SDS011;35149;51.196;6.204;2023-04-03T09:45:46;1.88;;;1.10;;
49131;SDS011;35149;51.196;6.204;2023-04-03T09:48:18;1.85;;;0.95;;
49131;SDS011;35149;51.196;6.204;2023-04-03T09:50:56;1.25;;;1.02;;
49131;SDS011;35149;51.196;6.204;2023-04-03T09:56:00;1.40;;;1.20;;
49131;SDS011;35149;51.196;6.204;2023-04-03T09:58:31;1.35;;;0.93;;
49131;SDS011;35149;51.196;6.204;2023-04-03T10:04:08;2.53;;;1.00;;
49131;SDS011;35149;51.196;6.204;2023-04-03T10:06:40;2.55;;;0.93;;
49131;SDS011;35149;51.196;6.204;2023-04-03T10:09:20;1.33;;;0.90;;
49131;SDS011;35149;51.196;6.204;2023-04-03T10:12:03;2.67;;;0.73;;
49131;SDS011;35149;51.196;6.204;2023-04-03T10:14:35;1.50;;;0.70;;
49131;SDS011;35149;51.196;6.204;2023-04-03T10:17:20;1.85;;;0.98;;
49131;SDS011;35149;51.196;6.204;2023-04-03T10:20:03;1.13;;;0.80;;
49131;SDS011;35149;51.196;6.204;2023-04-03T10:28:03;1.73;;;0.80;;
49131;SDS011;35149;51.196;6.204;2023-04-03T10:30:56;1.25;;;0.70;;
49131;SDS011;35149;51.196;6.204;2023-04-03T10:33:56;3.70;;;0.98;;
49131;SDS011;35149;51.196;6.204;2023-04-03T10:40:08;1.52;;;0.77;;
49131;SDS011;35149;51.196;6.204;2023-04-03T10:51:48;3.08;;;1.40;;
49131;SDS011;35149;51.196;6.204;2023-04-03T10:54:24;1.55;;;1.02;;
49131;SDS011;35149;51.196;6.204;2023-04-03T10:56:54;4.05;;;1.23;;
49131;SDS011;35149;51.196;6.204;2023-04-03T10:59:51;1.45;;;1.25;;
49131;SDS011;35149;51.196;6.204;2023-04-03T11:02:30;1.33;;;0.95;;
49131;SDS011;35149;51.196;6.204;2023-04-03T11:05:03;3.13;;;1.25;;
49131;SDS011;35149;51.196;6.204;2023-04-03T11:07:47;1.70;;;0.90;;
49131;SDS011;35149;51.196;6.204;2023-04-03T11:13:08;2.35;;;1.48;;
49131;SDS011;35149;51.196;6.204;2023-04-03T11:15:39;5.00;;;1.25;;
49131;SDS011;35149;51.196;6.204;2023-04-03T11:18:12;1.73;;;1.10;;
49131;SDS011;35149;51.196;6.204;2023-04-03T11:21:02;2.15;;;1.25;;
49131;SDS011;35149;51.196;6.204;2023-04-03T11:23:34;3.45;;;1.52;;
49131;SDS011;35149;51.196;6.204;2023-04-03T11:26:16;1.88;;;1.45;;
49131;SDS011;35149;51.196;6.204;2023-04-03T11:28:44;2.00;;;1.35;;
49131;SDS011;35149;51.196;6.204;2023-04-03T11:34:15;1.60;;;1.23;;
49131;SDS011;35149;51.196;6.204;2023-04-03T11:37:00;2.78;;;1.23;;
49131;SDS011;35149;51.196;6.204;2023-04-03T11:39:32;2.47;;;1.25;;
49131;SDS011;35149;51.196;6.204;2023-04-03T11:42:17;1.52;;;1.20;;
49131;SDS011;35149;51.196;6.204;2023-04-03T11:45:15;2.22;;;1.50;;
49131;SDS011;35149;51.196;6.204;2023-04-03T11:47:51;2.50;;;1.00;;
49131;SDS011;35149;51.196;6.204;2023-04-03T11:55:54;2.33;;;1.63;;
49131;SDS011;35149;51.196;6.204;2023-04-03T11:58:28;2.40;;;1.40;;
49131;SDS011;35149;51.196;6.204;2023-04-03T12:01:00;2.20;;;1.38;;
49131;SDS011;35149;51.196;6.204;2023-04-03T12:08:44;1.75;;;1.23;;
49131;SDS011;35149;51.196;6.204;2023-04-03T12:11:24;2.05;;;1.58;;
49131;SDS011;35149;51.196;6.204;2023-04-03T12:16:25;2.25;;;1.50;;
49131;SDS011;35149;51.196;6.204;2023-04-03T12:19:01;4.35;;;1.10;;
49131;SDS011;35149;51.196;6.204;2023-04-03T12:26:45;2.30;;;1.70;;
49131;SDS011;35149;51.196;6.204;2023-04-03T12:38:02;4.25;;;1.40;;
49131;SDS011;35149;51.196;6.204;2023-04-03T12:48:39;2.53;;;1.00;;
49131;SDS011;35149;51.196;6.204;2023-04-03T12:51:21;1.53;;;1.00;;
49131;SDS011;35149;51.196;6.204;2023-04-03T12:53:58;1.95;;;1.30;;
49131;SDS011;35149;51.196;6.204;2023-04-03T12:56:30;2.45;;;1.23;;
49131;SDS011;35149;51.196;6.204;2023-04-03T13:01:57;2.60;;;0.85;;
49131;SDS011;35149;51.196;6.204;2023-04-03T13:04:25;3.13;;;1.30;;
49131;SDS011;35149;51.196;6.204;2023-04-03T13:07:02;3.65;;;1.30;;
49131;SDS011;35149;51.196;6.204;2023-04-03T13:09:31;2.65;;;1.63;;
49131;SDS011;35149;51.196;6.204;2023-04-03T13:12:03;2.83;;;1.37;;
49131;SDS011;35149;51.196;6.204;2023-04-03T13:14:37;4.28;;;1.20;;
49131;SDS011;35149;51.196;6.204;2023-04-03T13:19:41;1.65;;;1.02;;
49131;SDS011;35149;51.196;6.204;2023-04-03T13:22:26;2.33;;;0.88;;
49131;SDS011;35149;51.196;6.204;2023-04-03T13:25:03;1.17;;;1.05;;
49131;SDS011;35149;51.196;6.204;2023-04-03T13:27:32;4.13;;;0.80;;
49131;SDS011;35149;51.196;6.204;2023-04-03T13:30:00;1.27;;;0.98;;
49131;SDS011;35149;51.196;6.204;2023-04-03T13:32:30;3.17;;;1.38;;
49131;SDS011;35149;51.196;6.204;2023-04-03T13:34:58;1.13;;;1.00;;
49131;SDS011;35149;51.196;6.204;2023-04-03T13:37:53;1.23;;;1.02;;
49131;SDS011;35149;51.196;6.204;2023-04-03T13:40:22;1.27;;;0.93;;
49131;SDS011;35149;51.196;6.204;2023-04-03T13:43:18;3.10;;;1.17;;
49131;SDS011;35149;51.196;6.204;2023-04-03T13:48:40;2.83;;;1.13;;
49131;SDS011;35149;51.196;6.204;2023-04-03T13:51:39;1.30;;;1.10;;
49131;SDS011;35149;51.196;6.204;2023-04-03T13:54:29;2.10;;;1.05;;
49131;SDS011;35149;51.196;6.204;2023-04-03T13:57:14;0.80;;;0.80;;
49131;SDS011;35149;51.196;6.204;2023-04-03T13:59:43;1.30;;;0.85;;
49131;SDS011;35149;51.196;6.204;2023-04-03T14:02:15;1.40;;;0.90;;
49131;SDS011;35149;51.196;6.204;2023-04-03T14:04:47;0.98;;;0.75;;
49131;SDS011;35149;51.196;6.204;2023-04-03T14:07:19;1.75;;;1.13;;
49131;SDS011;35149;51.196;6.204;2023-04-03T14:09:49;1.25;;;0.90;;
49131;SDS011;35149;51.196;6.204;2023-04-03T14:12:24;0.80;;;0.70;;
49131;SDS011;35149;51.196;6.204;2023-04-03T14:15:06;0.80;;;0.60;;
49131;SDS011;35149;51.196;6.204;2023-04-03T14:17:41;1.02;;;0.75;;
49131;SDS011;35149;51.196;6.204;2023-04-03T14:20:16;1.77;;;0.80;;
49131;SDS011;35149;51.196;6.204;2023-04-03T14:22:43;0.95;;;0.88;;
49131;SDS011;35149;51.196;6.204;2023-04-03T14:25:10;1.25;;;0.52;;
49131;SDS011;35149;51.196;6.204;2023-04-03T14:27:38;1.33;;;0.80;;
49131;SDS011;35149;51.196;6.204;2023-04-03T14:30:30;2.15;;;0.73;;
49131;SDS011;35149;51.196;6.204;2023-04-03T14:33:01;1.30;;;0.85;;
49131;SDS011;35149;51.196;6.204;2023-04-03T14:35:32;1.08;;;0.90;;
49131;SDS011;35149;51.196;6.204;2023-04-03T14:38:20;1.17;;;1.02;;
49131;SDS011;35149;51.196;6.204;2023-04-03T14:41:04;1.67;;;0.70;;
49131;SDS011;35149;51.196;6.204;2023-04-03T14:43:59;1.88;;;0.70;;
49131;SDS011;35149;51.196;6.204;2023-04-03T14:46:35;0.98;;;0.80;;
49131;SDS011;35149;51.196;6.204;2023-04-03T14:49:30;1.02;;;0.93;;
49131;SDS011;35149;51.196;6.204;2023-04-03T14:52:21;4.85;;;0.98;;
49131;SDS011;35149;51.196;6.204;2023-04-03T14:55:12;2.15;;;0.77;;
49131;SDS011;35149;51.196;6.204;2023-04-03T14:57:43;1.27;;;0.70;;
49131;SDS011;35149;51.196;6.204;2023-04-03T15:00:25;1.95;;;0.90;;
49131;SDS011;35149;51.196;6.204;2023-04-03T15:02:56;0.98;;;0.63;;
49131;SDS011;35149;51.196;6.204;2023-04-03T15:05:50;1.55;;;0.93;;
49131;SDS011;35149;51.196;6.204;2023-04-03T15:08:23;0.90;;;0.80;;
49131;SDS011;35149;51.196;6.204;2023-04-03T15:10:55;0.95;;;0.70;;
49131;SDS011;35149;51.196;6.204;2023-04-03T15:13:37;2.30;;;1.25;;
49131;SDS011;35149;51.196;6.204;2023-04-03T15:16:19;1.50;;;0.93;;
49131;SDS011;35149;51.196;6.204;2023-04-03T15:18:55;1.33;;;0.80;;
49131;SDS011;35149;51.196;6.204;2023-04-03T15:21:31;2.03;;;0.90;;
49131;SDS011;35149;51.196;6.204;2023-04-03T15:24:05;1.42;;;0.75;;
49131;SDS011;35149;51.196;6.204;2023-04-03T15:26:33;1.83;;;0.73;;
49131;SDS011;35149;51.196;6.204;2023-04-03T15:29:05;2.70;;;0.98;;
49131;SDS011;35149;51.196;6.204;2023-04-03T15:31:44;3.25;;;1.10;;
49131;SDS011;35149;51.196;6.204;2023-04-03T15:34:16;1.85;;;0.80;;
49131;SDS011;35149;51.196;6.204;2023-04-03T15:36:50;1.25;;;1.08;;
49131;SDS011;35149;51.196;6.204;2023-04-03T15:39:19;0.95;;;0.68;;
49131;SDS011;35149;51.196;6.204;2023-04-03T15:41:49;1.67;;;0.80;;
49131;SDS011;35149;51.196;6.204;2023-04-03T15:44:18;1.85;;;1.05;;
49131;SDS011;35149;51.196;6.204;2023-04-03T15:46:51;0.90;;;0.60;;
49131;SDS011;35149;51.196;6.204;2023-04-03T15:49:20;1.23;;;0.60;;
49131;SDS011;35149;51.196;6.204;2023-04-03T15:52:07;7.15;;;1.75;;
49131;SDS011;35149;51.196;6.204;2023-04-03T15:54:36;9.65;;;4.35;;
49131;SDS011;35149;51.196;6.204;2023-04-03T15:57:05;2.58;;;1.50;;
49131;SDS011;35149;51.196;6.204;2023-04-03T15:59:34;2.58;;;1.58;;
49131;SDS011;35149;51.196;6.204;2023-04-03T16:02:16;1.92;;;0.90;;
49131;SDS011;35149;51.196;6.204;2023-04-03T16:04:48;1.90;;;1.10;;
49131;SDS011;35149;51.196;6.204;2023-04-03T16:07:21;1.35;;;0.88;;
49131;SDS011;35149;51.196;6.204;2023-04-03T16:09:57;1.08;;;0.70;;
49131;SDS011;35149;51.196;6.204;2023-04-03T16:12:28;1.15;;;0.77;;
49131;SDS011;35149;51.196;6.204;2023-04-03T16:15:07;1.17;;;0.82;;
49131;SDS011;35149;51.196;6.204;2023-04-03T16:17:39;1.27;;;0.88;;
49131;SDS011;35149;51.196;6.204;2023-04-03T16:20:10;1.10;;;0.70;;
49131;SDS011;35149;51.196;6.204;2023-04-03T16:22:49;1.08;;;0.70;;
49131;SDS011;35149;51.196;6.204;2023-04-03T16:25:17;2.53;;;0.70;;
49131;SDS011;35149;51.196;6.204;2023-04-03T16:27:51;1.33;;;1.00;;
49131;SDS011;35149;51.196;6.204;2023-04-03T16:30:20;1.83;;;0.98;;
49131;SDS011;35149;51.196;6.204;2023-04-03T16:32:52;2.03;;;0.88;;
49131;SDS011;35149;51.196;6.204;2023-04-03T16:35:21;1.75;;;0.80;;
49131;SDS011;35149;51.196;6.204;2023-04-03T16:37:51;2.22;;;0.85;;
49131;SDS011;35149;51.196;6.204;2023-04-03T16:40:20;1.83;;;0.73;;
49131;SDS011;35149;51.196;6.204;2023-04-03T16:42:49;1.42;;;0.77;;
49131;SDS011;35149;51.196;6.204;2023-04-03T16:45:18;1.47;;;0.83;;
49131;SDS011;35149;51.196;6.204;2023-04-03T16:47:49;3.13;;;1.13;;
49131;SDS011;35149;51.196;6.204;2023-04-03T16:50:16;0.95;;;0.88;;
49131;SDS011;35149;51.196;6.204;2023-04-03T16:52:45;4.05;;;1.00;;
49131;SDS011;35149;51.196;6.204;2023-04-03T16:55:16;1.48;;;0.70;;
49131;SDS011;35149;51.196;6.204;2023-04-03T16:57:43;0.90;;;0.90;;
49131;SDS011;35149;51.196;6.204;2023-04-03T17:00:14;1.63;;;0.80;;
49131;SDS011;35149;51.196;6.204;2023-04-03T17:02:41;1.35;;;0.90;;
49131;SDS011;35149;51.196;6.204;2023-04-03T17:05:08;1.15;;;0.80;;
49131;SDS011;35149;51.196;6.204;2023-04-03T17:07:40;1.23;;;0.77;;
49131;SDS011;35149;51.196;6.204;2023-04-03T17:10:11;3.33;;;0.93;;
49131;SDS011;35149;51.196;6.204;2023-04-03T17:12:39;2.45;;;0.88;;
49131;SDS011;35149;51.196;6.204;2023-04-03T17:15:06;3.15;;;1.08;;
49131;SDS011;35149;51.196;6.204;2023-04-03T17:17:47;1.10;;;1.00;;
49131;SDS011;35149;51.196;6.204;2023-04-03T17:20:36;1.08;;;0.77;;